Latest Weather Observations for Cocos Island

IDW60801

Issued at 10:23 pm WST Friday 28 February 2020 (issued every 10 minutes, with the page automatically refreshed every 10 minutes)

About weather observations | Map of weather stations | Latest weather observations for WA | Other Formats
Station Details ID: 200284 Name: COCOS ISLAND AIRPORT Lat: -12.19 Lon: 96.83 Height: 3.0 m
Data from the previous 72 hours. | See also: Recent months at Cocos Island
Date/Time
WST
Temp
°C
App
Temp
°C
Dew
Point
°C
Rel
Hum
%
Delta-T
°C
Wind Press
QNH
hPa
Press
MSL
hPa
Rain since
9am
mm
Dir  Spd
km/h
Gust
km/h
Spd
kts
Gust
kts
28/10:00pm 28.0 30.8 25.0 84 2.1 ESE 19 24 10 13 1009.1 1009.1 0.0
28/09:30pm 28.1 31.1 25.3 85 2.0 ESE 19 26 10 14 1008.8 1008.8 0.0
28/09:00pm 28.1 31.4 25.1 84 2.1 ESE 17 24 9 13 1008.8 1008.8 0.0
28/08:30pm 28.3 30.7 24.3 79 2.8 SE 19 24 10 13 1008.7 1008.7 0.0
28/08:00pm 28.3 30.8 24.5 80 2.6 SE 19 24 10 13 1008.5 1008.5 0.0
28/07:30pm 28.3 31.1 24.9 82 2.4 SE 19 24 10 13 1008.1 1008.1 0.0
28/07:00pm 28.4 30.8 24.6 80 2.7 SE 20 24 11 13 1007.8 1007.8 0.0
28/06:30pm 28.5 31.2 24.7 80 2.7 SE 19 26 10 14 1007.8 1007.8 0.0
28/06:00pm 28.8 31.4 24.6 78 2.9 SE 19 24 10 13 1007.6 1007.6 0.0
28/05:30pm 29.3 32.4 24.8 77 3.1 ESE 17 24 9 13 1007.7 1007.7 0.0
28/05:00pm 29.3 31.8 24.8 77 3.2 SE 20 28 11 15 1007.8 1007.8 0.0
28/04:30pm 29.6 32.4 24.9 76 3.3 SE 19 26 10 14 1007.7 1007.7 0.0
28/04:00pm 29.9 33.3 25.2 76 3.3 ESE 17 24 9 13 1007.9 1007.9 0.0
28/03:30pm 29.8 33.2 25.3 77 3.2 ESE 17 26 9 14 1008.2 1008.2 0.0
28/03:00pm 29.7 32.6 25.4 78 3.0 SE 20 26 11 14 1008.5 1008.5 0.0
28/02:30pm 29.4 32.2 24.9 77 3.2 ESE 19 28 10 15 1008.8 1008.8 0.0
28/02:00pm 29.1 31.6 24.7 77 3.1 ESE 20 30 11 16 1009.1 1009.1 0.0
28/01:30pm 29.0 31.5 24.8 78 2.9 ESE 20 32 11 17 1009.5 1009.5 0.0
28/01:00pm 28.5 32.3 25.3 83 2.3 ESE 15 24 8 13 1009.8 1009.8 0.0
28/12:30pm 28.8 32.5 25.2 81 2.5 ESE 15 28 8 15 1009.9 1009.9 0.0
28/12:00pm 28.8 31.8 25.6 83 2.3 E 20 32 11 17 1010.0 1010.0 0.0
28/11:30am 29.3 32.4 24.8 77 3.1 ESE 17 30 9 16 1010.1 1010.1 0.0
28/11:00am 28.1 31.1 24.7 82 2.4 ESE 17 28 9 15 1010.3 1010.3 26.2
28/10:30am 29.1 33.1 25.1 79 2.8 ESE 13 20 7 11 1010.3 1010.3 26.2
28/10:00am 28.3 32.1 25.3 84 2.1 ESE 15 24 8 13 1010.3 1010.3 26.2
28/09:30am 27.5 31.8 25.5 89 1.4 ESE 13 22 7 12 1010.1 1010.1 26.2
28/09:00am 26.4 29.1 24.8 91 1.1 ESE 19 24 10 13 1009.8 1009.8 26.2
28/08:43am 26.6 29.8 25.6 94 0.7 SE 19 26 10 14 1009.8 1009.8 26.2
28/08:40am 26.5 29.7 25.5 94 0.7 SE 19 26 10 14 1009.8 1009.8 26.2
28/08:30am 26.3 28.8 25.4 95 0.6 SE 22 28 12 15 1009.6 1009.6 26.0
28/08:13am 26.3 30.2 25.4 95 0.6 ESE 15 32 8 17 1009.3 1009.3 23.0
28/08:11am 26.4 31.2 25.7 96 0.5 ESE 11 20 6 11 1009.3 1009.3 22.6
28/08:00am 26.4 32.1 25.9 97 0.4 ESE 7 11 4 6 1009.1 1009.1 22.6
28/07:45am 25.9 30.6 25.6 98 0.2 ESE 11 17 6 9 1009.0 1009.0 22.4
28/07:30am 25.7 30.3 25.4 98 0.2 ESE 11 17 6 9 1008.9 1008.9 21.4
28/07:13am 25.6 30.2 25.3 98 0.2 ESE 11 17 6 9 1008.8 1008.8 19.2
28/07:05am 25.5 30.0 25.2 98 0.2 ESE 11 15 6 8 1008.8 1008.8 19.0
28/07:00am 25.3 29.2 24.8 97 0.3 SE 13 17 7 9 1008.8 1008.8 19.0
28/06:30am 24.6 27.0 24.3 98 0.2 SE 19 24 10 13 1008.8 1008.8 15.8
28/06:00am 25.4 26.4 24.7 96 0.5 E 28 33 15 18 1008.7 1008.7 2.2
28/05:57am 25.4 26.4 24.7 96 0.5 E 28 33 15 18 1008.6 1008.6 1.6
28/05:39am 26.2 27.8 25.2 94 0.7 E 26 33 14 18 1008.5 1008.5 0.6
28/05:37am 26.3 27.6 25.3 94 0.7 E 28 33 15 18 1008.5 1008.5 0.4
28/05:30am 26.6 28.2 25.2 92 1.0 E 26 33 14 18 1008.4 1008.4 0.2
28/05:00am 27.3 31.7 25.1 88 1.5 ESE 11 19 6 10 1008.4 1008.4 0.2
28/04:30am 27.2 30.8 25.0 88 1.5 SE 15 20 8 11 1008.7 1008.7 0.2
28/04:00am 27.8 31.8 25.0 85 2.0 E 13 19 7 10 1009.0 1009.0 0.2
28/03:30am 27.8 32.7 25.2 86 1.8 ESE 9 19 5 10 1009.1 1009.1 0.2
28/03:00am 27.8 32.7 25.2 86 1.8 ESE 9 19 5 10 1009.4 1009.4 0.2
28/02:30am 28.0 32.5 24.6 82 2.4 ESE 9 15 5 8 1009.8 1009.8 0.2
28/02:00am 28.2 31.7 24.2 79 2.8 E 13 19 7 10 1010.0 1010.0 0.2
28/01:30am 28.3 31.5 23.7 76 3.2 E 13 19 7 10 1010.4 1010.4 0.2
28/01:00am 28.4 31.1 23.5 75 3.4 E 15 20 8 11 1010.5 1010.5 0.2
28/12:30am 28.5 32.0 23.6 75 3.4 ESE 11 20 6 11 1010.6 1010.6 0.2
28/12:00am 28.4 31.5 23.5 75 3.4 ESE 13 24 7 13 1010.6 1010.6 0.2
 
Date/Time
WST
Temp
°C
App
Temp
°C
Dew
Point
°C
Rel
Hum
%
Delta-T
°C
Wind Press
QNH
hPa
Press
MSL
hPa
Rain since
9am
mm
Dir  Spd
km/h
Gust
km/h
Spd
kts
Gust
kts
27/11:30pm 28.5 31.6 24.1 77 3.0 ESE 15 24 8 13 1010.4 1010.4 0.2
27/11:00pm 28.4 31.1 24.2 78 2.9 ESE 17 24 9 13 1010.1 1010.1 0.2
27/10:30pm 28.2 32.9 25.6 86 1.8 ESE 11 19 6 10 1010.1 1010.1 0.2
27/10:00pm 28.2 30.5 24.4 80 2.6 ESE 20 28 11 15 1010.0 1010.0 0.2
27/09:30pm 28.2 30.9 25.0 83 2.2 SE 20 28 11 15 1009.9 1009.9 0.2
27/09:00pm 27.2 29.7 25.4 90 1.3 SE 22 28 12 15 1009.5 1009.5 0.2
27/08:53pm 27.0 29.7 25.0 89 1.4 SE 20 28 11 15 1009.6 1009.6 0.2
27/08:34pm 26.3 28.3 24.5 90 1.2 SE 22 28 12 15 1009.4 1009.4 0.2
27/08:30pm 26.3 28.1 24.3 89 1.4 SE 22 28 12 15 1009.4 1009.4 0.2
27/08:00pm 28.4 31.8 25.2 83 2.2 ESE 17 28 9 15 1009.0 1009.0 0.2
27/07:30pm 28.5 30.8 24.5 79 2.8 ESE 20 24 11 13 1008.8 1008.8 0.2
27/07:00pm 28.7 31.2 24.5 78 2.9 ESE 19 24 10 13 1008.3 1008.3 0.2
27/06:30pm 29.0 32.1 24.8 78 2.9 ESE 17 26 9 14 1008.2 1008.2 0.2
27/06:00pm 29.2 31.9 24.1 74 3.5 ESE 17 24 9 13 1008.1 1008.1 0.2
27/05:30pm 28.9 31.8 24.5 77 3.1 ESE 17 26 9 14 1008.2 1008.2 0.2
27/05:00pm 29.4 32.8 25.2 78 3.0 E 17 24 9 13 1008.4 1008.4 0.2
27/04:30pm 30.1 32.6 24.7 73 3.8 E 20 28 11 15 1008.7 1008.7 0.2
27/04:00pm 30.3 33.2 25.1 73 3.7 E 19 26 10 14 1009.0 1009.0 0.2
27/03:30pm 30.0 32.4 24.6 73 3.8 E 20 28 11 15 1009.0 1009.0 0.2
27/03:00pm 30.1 32.4 23.5 67 4.6 E 17 22 9 12 1009.3 1009.3 0.2
27/02:30pm 29.7 32.3 24.6 74 3.6 ESE 19 24 10 13 1009.7 1009.7 0.2
27/02:00pm 30.4 33.2 25.2 74 3.7 E 20 26 11 14 1010.2 1010.2 0.2
27/01:30pm 29.9 32.4 24.8 74 3.6 E 20 24 11 13 1010.8 1010.8 0.2
27/01:00pm 29.5 31.9 24.6 75 3.4 E 20 26 11 14 1010.9 1010.9 0.2
27/12:30pm 29.5 32.2 25.0 77 3.2 E 20 30 11 16 1010.8 1010.8 0.2
27/12:00pm 29.5 32.0 24.8 76 3.3 E 20 30 11 16 1010.8 1010.8 0.2
27/11:30am 29.4 31.7 24.5 75 3.4 E 20 30 11 16 1010.7 1010.7 0.2
27/11:00am 29.1 31.7 24.9 78 2.9 E 20 26 11 14 1010.9 1010.9 3.4
27/10:30am 29.2 31.5 25.0 78 2.9 E 22 28 12 15 1010.9 1010.9 3.4
27/10:00am 29.0 31.4 25.2 80 2.7 E 22 26 12 14 1010.8 1010.8 3.4
27/09:30am 28.6 32.2 24.4 78 2.9 ESE 13 22 7 12 1010.6 1010.6 3.4
27/09:00am 28.4 30.9 24.8 81 2.5 E 20 26 11 14 1010.1 1010.1 3.4
27/08:30am 27.9 30.4 24.7 83 2.2 E 20 24 11 13 1009.8 1009.8 3.4
27/08:00am 27.3 30.3 24.7 86 1.8 ESE 17 24 9 13 1009.4 1009.4 3.4
27/07:30am 26.8 29.7 24.5 87 1.6 ESE 17 28 9 15 1009.3 1009.3 3.4
27/07:00am 26.6 29.2 24.6 89 1.4 ESE 19 28 10 15 1009.0 1009.0 3.4
27/06:30am 26.7 29.2 24.7 89 1.4 ESE 20 33 11 18 1008.8 1008.8 3.4
27/06:26am 26.6 29.1 24.4 88 1.5 ESE 19 32 10 17 1008.8 1008.8 3.4
27/06:01am 26.3 28.5 24.9 92 1.0 ESE 22 37 12 20 1008.6 1008.6 3.2
27/06:00am 26.3 28.1 24.9 92 1.0 E 24 37 13 20 1008.6 1008.6 3.2
27/05:30am 27.0 31.0 25.0 89 1.4 E 13 22 7 12 1008.4 1008.4 3.0
27/05:00am 26.7 30.2 24.9 90 1.3 ESE 15 26 8 14 1008.7 1008.7 3.0
27/04:30am 26.5 29.8 25.1 92 1.0 ESE 17 24 9 13 1008.6 1008.6 3.0
27/04:00am 26.8 30.3 25.4 92 1.0 ESE 17 24 9 13 1008.9 1008.9 3.0
27/03:48am 26.7 30.2 25.5 93 0.8 ESE 17 26 9 14 1008.9 1008.9 3.0
27/03:32am 26.4 29.2 25.2 93 0.8 ESE 20 32 11 17 1009.1 1009.1 3.0
27/03:30am 26.3 29.0 25.1 93 0.8 ESE 20 32 11 17 1009.1 1009.1 3.0
27/03:19am 26.7 29.5 25.3 92 1.0 ESE 20 28 11 15 1009.3 1009.3 1.2
27/03:18am 26.7 29.7 25.3 92 1.0 ESE 19 28 10 15 1009.3 1009.3 1.0
27/03:00am 27.4 31.1 25.2 88 1.5 E 15 20 8 11 1009.3 1009.3 0.0
27/02:30am 27.9 30.9 25.3 86 1.8 E 19 22 10 12 1009.7 1009.7 0.0
27/02:00am 27.8 30.3 24.4 82 2.4 E 19 28 10 15 1010.0 1010.0 0.0
27/01:30am 28.2 29.7 24.4 80 2.6 E 24 30 13 16 1010.2 1010.2 0.0
27/01:00am 28.3 31.1 25.3 84 2.1 E 20 28 11 15 1010.4 1010.4 0.0
27/12:30am 28.3 31.0 24.7 81 2.5 E 19 26 10 14 1010.4 1010.4 0.0
27/12:00am 28.4 31.2 25.0 82 2.4 ESE 19 28 10 15 1010.5 1010.5 0.0
 
Date/Time
WST
Temp
°C
App
Temp
°C
Dew
Point
°C
Rel
Hum
%
Delta-T
°C
Wind Press
QNH
hPa
Press
MSL
hPa
Rain since
9am
mm
Dir  Spd
km/h
Gust
km/h
Spd
kts
Gust
kts
26/11:30pm 28.3 31.0 25.1 83 2.2 E 20 28 11 15 1010.5 1010.5 0.0
26/11:00pm 28.5 32.4 25.5 84 2.1 ESE 15 26 8 14 1010.4 1010.4 0.0
26/10:30pm 28.5 31.1 24.9 81 2.5 E 20 28 11 15 1010.1 1010.1 0.0
26/10:00pm 28.5 30.2 24.7 80 2.7 E 24 32 13 17 1009.9 1009.9 0.0
26/09:30pm 28.5 31.7 24.9 81 2.5 ESE 17 28 9 15 1009.6 1009.6 0.0
26/09:00pm 28.6 32.1 24.8 80 2.7 ESE 15 26 8 14 1009.5 1009.5 0.0
26/08:30pm 28.6 32.0 24.6 79 2.8 ESE 15 22 8 12 1009.1 1009.1 0.0
26/08:00pm 28.6 31.6 24.6 79 2.8 ESE 17 22 9 12 1008.9 1008.9 0.0
26/07:30pm 28.8 32.4 25.0 80 2.7 ESE 15 24 8 13 1008.6 1008.6 0.0
26/07:00pm 29.0 32.2 25.0 79 2.8 ESE 17 26 9 14 1008.3 1008.3 0.0
26/06:30pm 29.5 32.5 25.5 79 2.8 ESE 20 28 11 15 1008.1 1008.1 0.0
26/06:00pm 29.5 32.0 25.3 78 3.0 SE 22 28 12 15 1008.2 1008.2 0.0
26/05:30pm 29.5 32.5 25.5 79 2.8 ESE 20 30 11 16 1008.2 1008.2 0.0
26/05:00pm 29.6 32.3 25.1 77 3.2 ESE 20 28 11 15 1008.4 1008.4 0.0
26/04:30pm 30.4 33.8 25.9 77 3.2 ESE 19 26 10 14 1008.5 1008.5 0.0
26/04:00pm 29.9 32.6 25.0 75 3.4 ESE 20 30 11 16 1008.6 1008.6 0.0
26/03:30pm 29.8 32.6 24.9 75 3.4 ESE 19 28 10 15 1008.8 1008.8 0.0
26/03:00pm 30.3 33.0 25.6 76 3.3 SE 22 32 12 17 1009.0 1009.0 0.0
26/02:30pm 29.9 32.4 25.4 77 3.2 SE 22 30 12 16 1009.3 1009.3 0.0
26/02:00pm 29.8 32.3 24.7 74 3.6 ESE 20 28 11 15 1009.8 1009.8 0.0
26/01:30pm 29.6 32.5 25.4 78 3.0 ESE 20 28 11 15 1010.0 1010.0 0.0
26/01:00pm 29.7 32.8 24.8 75 3.4 ESE 17 26 9 14 1010.4 1010.4 0.0
26/12:30pm 29.3 32.3 25.3 79 2.8 ESE 19 30 10 16 1010.5 1010.5 0.0
26/12:00pm 29.5 32.1 24.6 75 3.4 ESE 19 28 10 15 1010.6 1010.6 0.0
26/11:30am 29.1 31.8 24.7 77 3.1 ESE 19 32 10 17 1010.6 1010.6 0.0
26/11:00am 29.0 32.1 24.8 78 2.9 ESE 17 28 9 15 1010.7 1010.7 1.6
26/10:30am 28.6 31.7 24.8 80 2.7 ESE 17 24 9 13 1010.5 1010.5 1.6
26/10:00am 28.5 32.0 24.9 81 2.5 ESE 15 24 8 13 1010.4 1010.4 1.6
26/09:30am 28.2 31.4 24.4 80 2.6 E 15 24 8 13 1010.3 1010.3 1.6
26/09:00am 27.8 30.8 24.6 83 2.2 E 17 24 9 13 1010.0 1010.0 1.6
26/08:30am 27.6 31.2 25.0 86 1.8 E 15 24 8 13 1009.6 1009.6 1.6
26/08:00am 27.4 30.7 24.5 84 2.0 E 15 30 8 16 1009.5 1009.5 1.6
26/07:30am 26.5 31.4 24.7 90 1.2 E 7 15 4 8 1009.2 1009.2 1.6
26/07:00am 26.2 29.6 24.6 91 1.1 ESE 15 26 8 14 1009.2 1009.2 1.6
26/06:30am 26.3 28.9 24.0 87 1.6 ESE 17 26 9 14 1009.0 1009.0 1.6
26/06:00am 26.7 30.4 24.5 88 1.5 ESE 13 22 7 12 1008.8 1008.8 1.6
26/05:30am 26.4 30.0 24.4 89 1.4 ESE 13 19 7 10 1008.7 1008.7 1.6
26/05:11am 25.7 30.3 24.7 94 0.7 SSE 9 15 5 8 1008.7 1008.7 1.6
26/05:00am 25.0 28.4 24.1 95 0.6 SSE 13 17 7 9 1008.7 1008.7 1.6
26/04:44am 25.1 25.5 23.7 92 1.0 SE 28 39 15 21 1008.9 1008.9 0.6
26/04:42am 25.3 26.2 23.9 92 1.0 SE 26 39 14 21 1008.8 1008.8 0.2
26/04:30am 26.1 29.5 24.1 89 1.4 ESE 13 20 7 11 1008.8 1008.8 0.2
26/04:11am 26.1 29.9 24.7 92 1.0 ESE 13 19 7 10 1008.8 1008.8 0.2
26/04:00am 25.8 28.0 24.0 90 1.2 E 19 26 10 14 1008.9 1008.9 0.2
26/03:54am 25.7 27.9 24.3 92 1.0 E 20 32 11 17 1009.1 1009.1 0.2
26/03:30am 26.5 31.1 25.3 93 0.8 E 11 17 6 9 1009.4 1009.4 0.2
26/03:13am 26.2 29.0 25.2 94 0.7 E 20 28 11 15 1009.6 1009.6 0.2
26/03:00am 26.0 27.9 25.0 94 0.7 E 24 30 13 16 1009.7 1009.7 0.2
26/02:46am 26.3 27.5 25.1 93 0.8 E 28 35 15 19 1009.8 1009.8 0.0
26/02:30am 27.0 28.3 25.2 90 1.3 E 28 33 15 18 1009.8 1009.8 0.0
26/02:00am 27.8 30.8 24.6 83 2.2 ESE 17 26 9 14 1009.9 1009.9 0.0
26/01:30am 27.9 29.6 24.7 83 2.2 SE 24 32 13 17 1010.2 1010.2 0.0
26/01:00am 28.0 29.7 24.6 82 2.4 SE 24 30 13 16 1010.6 1010.6 0.0
26/12:30am 28.0 29.9 25.0 84 2.1 SE 24 32 13 17 1010.8 1010.8 0.0
26/12:00am 28.1 29.4 24.7 82 2.4 SE 26 32 14 17 1010.9 1010.9 0.0

Other formats

Comma delimited format used in spreadsheet applications
http://www.bom.gov.au/fwo/IDW60801/IDW60801.96996.axf

JavaScript Object Notation format (JSON) in row-major order
http://www.bom.gov.au/fwo/IDW60801/IDW60801.96996.json

Data quality

Most of these data are generated automatically and are frequently updated. Quality checks on data are not normally performed. It is possible for incorrect values to appear. Refer to information at About Latest Weather Observations and please check the disclaimer before using these data.